Time;durP1;ratioP1;P1;durP2;ratioP2;P2;SDS_P1;SDS_P2;PMS_P1;PMS_P2;Temp;Humidity;BMP_temperature;BMP_pressure;BME280_temperature;BME280_humidity;BME280_pressure;Samples;Min_cycle;Max_cycle;Signal;HPM_P1;HPM_P2
2022/05/02 00:01:03;;;;;;;13.02;6.15;;;;;;;;;;5057283;28;20116;-74
2022/05/02 00:03:31;;;;;;;12.38;6.05;;;;;;;;;;5052902;28;20548;-74
2022/05/02 00:05:58;;;;;;;12.52;6.60;;;;;;;;;;5048525;28;20403;-74
2022/05/02 00:08:29;;;;;;;17.90;6.25;;;;;;;;;;5064782;28;20147;-74
2022/05/02 00:10:56;;;;;;;18.02;6.38;;;;;;;;;;5065660;28;20117;-74
2022/05/02 00:13:23;;;;;;;14.13;6.57;;;;;;;;;;5064488;28;20077;-75
2022/05/02 00:15:50;;;;;;;17.85;7.30;;;;;;;;;;5065528;28;20132;-74
2022/05/02 00:18:18;;;;;;;18.55;8.90;;;;;;;;;;5067937;28;20060;-74
2022/05/02 00:20:45;;;;;;;24.48;12.00;;;;;;;;;;5066389;28;20088;-74
2022/05/02 00:23:12;;;;;;;20.60;10.77;;;;;;;;;;5061517;28;20137;-74
2022/05/02 00:25:39;;;;;;;21.15;9.80;;;;;;;;;;5061369;28;20139;-74
2022/05/02 00:28:12;;;;;;;23.80;12.52;;;;;;;;;;5067385;28;20151;-74
2022/05/02 00:30:39;;;;;;;24.70;12.60;;;;;;;;;;5065894;28;20139;-74
2022/05/02 00:33:07;;;;;;;23.48;12.20;;;;;;;;;;5065674;28;20052;-74
2022/05/02 00:35:34;;;;;;;32.92;17.98;;;;;;;;;;5063458;28;20106;-74
2022/05/02 00:38:01;;;;;;;18.25;8.10;;;;;;;;;;5066917;28;20131;-74
2022/05/02 00:40:28;;;;;;;13.15;7.07;;;;;;;;;;5065927;28;20135;-74
2022/05/02 00:42:56;;;;;;;12.43;6.50;;;;;;;;;;5061481;28;20140;-74
2022/05/02 00:45:23;;;;;;;14.68;6.93;;;;;;;;;;5065045;28;20126;-74
2022/05/02 00:47:54;;;;;;;16.45;6.97;;;;;;;;;;5058373;28;20048;-74
2022/05/02 00:50:40;;;;;;;20.40;7.38;;;;;;;;;;5065183;28;20061;-74
2022/05/02 00:53:13;;;;;;;16.45;7.25;;;;;;;;;;5065161;28;20080;-74
2022/05/02 00:55:40;;;;;;;12.35;5.78;;;;;;;;;;5063245;28;20049;-75
2022/05/02 00:58:08;;;;;;;17.60;7.65;;;;;;;;;;5046951;28;20075;-75
2022/05/02 01:00:36;;;;;;;17.17;8.60;;;;;;;;;;5059050;28;20061;-74
2022/05/02 01:03:04;;;;;;;28.98;10.10;;;;;;;;;;5054413;28;20120;-75
2022/05/02 01:05:31;;;;;;;21.77;10.32;;;;;;;;;;5065776;28;20061;-74
2022/05/02 01:07:59;;;;;;;17.08;8.65;;;;;;;;;;5063983;28;20590;-75
2022/05/02 01:10:27;;;;;;;20.88;10.30;;;;;;;;;;5058716;28;20072;-74
2022/05/02 01:12:54;;;;;;;18.13;9.07;;;;;;;;;;5055357;28;20135;-75
2022/05/02 01:15:21;;;;;;;15.60;7.07;;;;;;;;;;5063081;28;20076;-74
2022/05/02 01:17:49;;;;;;;10.85;6.38;;;;;;;;;;5060353;28;20157;-74
2022/05/02 01:20:16;;;;;;;12.90;6.40;;;;;;;;;;5063731;28;20183;-75
2022/05/02 01:22:43;;;;;;;10.82;6.28;;;;;;;;;;5065399;28;20130;-74
2022/05/02 01:25:11;;;;;;;12.27;5.97;;;;;;;;;;5059438;28;20052;-74
2022/05/02 01:27:38;;;;;;;10.07;5.75;;;;;;;;;;5065198;28;20098;-74
2022/05/02 01:30:06;;;;;;;14.52;5.75;;;;;;;;;;5062851;28;20461;-74
2022/05/02 01:32:33;;;;;;;13.60;6.22;;;;;;;;;;5058353;28;20102;-74
2022/05/02 01:35:00;;;;;;;11.65;5.45;;;;;;;;;;5063925;28;20847;-74
2022/05/02 01:37:27;;;;;;;10.15;5.38;;;;;;;;;;5056989;28;20559;-74
2022/05/02 01:39:55;;;;;;;11.52;5.68;;;;;;;;;;5052236;28;20044;-74
2022/05/02 01:42:22;;;;;;;10.27;5.97;;;;;;;;;;5064574;28;20548;-74
2022/05/02 01:44:49;;;;;;;7.60;5.05;;;;;;;;;;5060617;28;20139;-74
2022/05/02 01:47:17;;;;;;;10.75;5.53;;;;;;;;;;5050306;28;20509;-75
2022/05/02 01:49:44;;;;;;;12.20;6.05;;;;;;;;;;5055141;28;20110;-74
2022/05/02 01:52:11;;;;;;;29.55;9.10;;;;;;;;;;5057461;28;20047;-74
2022/05/02 01:54:38;;;;;;;14.30;6.72;;;;;;;;;;5060463;28;20067;-74
2022/05/02 01:57:06;;;;;;;10.00;5.32;;;;;;;;;;5050634;28;20669;-74
2022/05/02 01:59:33;;;;;;;19.20;5.85;;;;;;;;;;5054503;28;20470;-74
2022/05/02 02:02:00;;;;;;;10.30;5.43;;;;;;;;;;5059557;28;20079;-74
2022/05/02 02:07:27;;;;;;;15.95;5.68;;;;;;;;;;5040831;28;20159;-74
2022/05/02 02:09:54;;;;;;;10.43;5.75;;;;;;;;;;5055526;28;20757;-74
2022/05/02 02:12:22;;;;;;;20.60;7.50;;;;;;;;;;5058398;28;20147;-74
2022/05/02 02:14:49;;;;;;;18.73;6.22;;;;;;;;;;5061407;28;20073;-74
2022/05/02 02:17:16;;;;;;;11.25;4.78;;;;;;;;;;5055683;28;20068;-74
2022/05/02 02:19:43;;;;;;;12.73;5.72;;;;;;;;;;5065723;28;20072;-74
2022/05/02 02:22:17;;;;;;;8.38;4.65;;;;;;;;;;5057924;28;20143;-74
2022/05/02 02:24:46;;;;;;;9.45;5.05;;;;;;;;;;5061499;28;20145;-74
2022/05/02 02:27:14;;;;;;;8.68;5.07;;;;;;;;;;5064284;28;20068;-74
2022/05/02 02:29:41;;;;;;;12.13;5.68;;;;;;;;;;5067351;28;20131;-74
2022/05/02 02:32:09;;;;;;;21.13;5.85;;;;;;;;;;5068009;28;20088;-74
2022/05/02 02:34:36;;;;;;;9.68;5.47;;;;;;;;;;5059102;28;20067;-74
2022/05/02 02:37:03;;;;;;;14.30;5.53;;;;;;;;;;5062014;28;20088;-74
2022/05/02 02:39:31;;;;;;;15.50;5.38;;;;;;;;;;5063130;28;20084;-74
2022/05/02 02:41:58;;;;;;;14.45;6.10;;;;;;;;;;5064687;28;20572;-74
2022/05/02 02:44:25;;;;;;;23.77;9.05;;;;;;;;;;5058321;28;20127;-74
2022/05/02 02:46:53;;;;;;;11.68;5.88;;;;;;;;;;5062766;28;20135;-74
2022/05/02 02:49:20;;;;;;;10.93;5.72;;;;;;;;;;5064645;28;20135;-74
2022/05/02 02:51:47;;;;;;;11.98;6.40;;;;;;;;;;5081212;28;20567;-74
2022/05/02 02:54:14;;;;;;;16.85;6.22;;;;;;;;;;5062179;28;20132;-74
2022/05/02 02:56:42;;;;;;;17.13;6.88;;;;;;;;;;5059093;28;20099;-74
2022/05/02 02:59:09;;;;;;;20.63;7.47;;;;;;;;;;5067449;28;20110;-74
2022/05/02 03:01:36;;;;;;;27.00;7.18;;;;;;;;;;5063649;28;20479;-74
2022/05/02 03:06:01;;;;;;;18.92;8.93;;;;;;;;;;5063548;28;20053;-74
2022/05/02 03:06:51;;;;;;;18.17;8.05;;;;;;;;;;5050981;28;20064;-74
2022/05/02 03:09:19;;;;;;;25.00;8.80;;;;;;;;;;5064109;28;20676;-74
2022/05/02 03:11:46;;;;;;;25.02;10.57;;;;;;;;;;5065090;28;20136;-74
2022/05/02 03:14:13;;;;;;;20.15;9.35;;;;;;;;;;5063691;28;20792;-74
2022/05/02 03:16:40;;;;;;;13.63;7.28;;;;;;;;;;5066255;28;20136;-74
2022/05/02 03:19:08;;;;;;;13.07;6.95;;;;;;;;;;5066331;28;20049;-74
2022/05/02 03:21:35;;;;;;;14.43;7.53;;;;;;;;;;5069172;28;20057;-77
2022/05/02 03:24:03;;;;;;;13.70;6.63;;;;;;;;;;5063837;28;20140;-77
2022/05/02 03:26:30;;;;;;;17.77;7.00;;;;;;;;;;5055213;28;20140;-77
2022/05/02 03:28:57;;;;;;;12.68;7.18;;;;;;;;;;5067954;28;20144;-78
2022/05/02 03:31:24;;;;;;;13.27;7.05;;;;;;;;;;5066297;28;20091;-77
2022/05/02 03:33:51;;;;;;;30.20;7.65;;;;;;;;;;5069328;28;20150;-77
2022/05/02 03:36:19;;;;;;;14.02;7.22;;;;;;;;;;5070769;28;20040;-78
2022/05/02 03:38:46;;;;;;;19.67;7.85;;;;;;;;;;5066702;28;20104;-77
2022/05/02 03:41:16;;;;;;;19.90;7.90;;;;;;;;;;5065840;28;20083;-77
2022/05/02 03:43:43;;;;;;;25.02;7.78;;;;;;;;;;5069040;28;20135;-77
2022/05/02 03:46:10;;;;;;;13.80;6.82;;;;;;;;;;5070405;28;20507;-77
2022/05/02 03:48:37;;;;;;;11.85;6.68;;;;;;;;;;5068739;28;20048;-78
2022/05/02 03:51:05;;;;;;;21.25;7.15;;;;;;;;;;5066996;28;20072;-78
2022/05/02 03:53:32;;;;;;;18.48;7.10;;;;;;;;;;5068900;28;20143;-79
2022/05/02 03:55:59;;;;;;;12.68;6.78;;;;;;;;;;5068681;28;20131;-78
2022/05/02 03:58:26;;;;;;;16.77;7.70;;;;;;;;;;5063461;28;20076;-77
2022/05/02 04:00:53;;;;;;;25.83;8.38;;;;;;;;;;5049303;28;20438;-77
2022/05/02 04:03:21;;;;;;;17.50;7.70;;;;;;;;;;5057312;28;20132;-77
2022/05/02 04:05:48;;;;;;;26.85;8.35;;;;;;;;;;5057108;28;20060;-77
2022/05/02 04:08:15;;;;;;;13.25;6.90;;;;;;;;;;5070570;28;20398;-78
2022/05/02 04:10:42;;;;;;;17.33;7.50;;;;;;;;;;5069567;28;20135;-78
2022/05/02 04:13:10;;;;;;;24.50;9.25;;;;;;;;;;5056957;28;20543;-77
2022/05/02 04:15:37;;;;;;;21.33;8.43;;;;;;;;;;5054563;28;20126;-78
2022/05/02 04:18:05;;;;;;;23.50;9.18;;;;;;;;;;5064226;28;20075;-78
2022/05/02 04:20:32;;;;;;;34.78;9.10;;;;;;;;;;5070303;28;20044;-78
2022/05/02 04:23:00;;;;;;;23.35;8.30;;;;;;;;;;5053985;28;20084;-77
2022/05/02 04:25:27;;;;;;;24.50;11.32;;;;;;;;;;5065063;28;20587;-78
2022/05/02 04:27:54;;;;;;;16.52;7.82;;;;;;;;;;5069444;28;20567;-77
2022/05/02 04:30:21;;;;;;;21.65;8.23;;;;;;;;;;5068719;28;20540;-77
2022/05/02 04:32:48;;;;;;;21.27;8.75;;;;;;;;;;5068839;28;20049;-77
2022/05/02 04:35:15;;;;;;;23.58;8.32;;;;;;;;;;5069910;28;20048;-77
2022/05/02 04:37:43;;;;;;;22.00;8.23;;;;;;;;;;5069185;28;20461;-77
2022/05/02 04:40:10;;;;;;;15.35;7.93;;;;;;;;;;5065255;28;20068;-77
2022/05/02 04:42:38;;;;;;;16.83;8.52;;;;;;;;;;5051680;28;20132;-77
2022/05/02 04:45:05;;;;;;;13.88;8.20;;;;;;;;;;5059723;28;20065;-77
2022/05/02 04:47:32;;;;;;;19.02;9.30;;;;;;;;;;5067898;23;20516;-77
2022/05/02 04:50:03;;;;;;;20.48;8.27;;;;;;;;;;5048232;28;20103;-77
2022/05/02 04:52:30;;;;;;;21.60;8.43;;;;;;;;;;5048750;28;20541;-78
2022/05/02 04:54:57;;;;;;;41.42;9.85;;;;;;;;;;5049284;28;20444;-79
2022/05/02 04:57:24;;;;;;;19.38;8.45;;;;;;;;;;5047164;28;20560;-78
2022/05/02 04:59:51;;;;;;;17.08;8.38;;;;;;;;;;5036484;28;20051;-79
2022/05/02 05:02:18;;;;;;;17.42;7.80;;;;;;;;;;5030378;28;20081;-78
2022/05/02 05:04:46;;;;;;;16.77;7.65;;;;;;;;;;5050358;28;20648;-81
2022/05/02 05:07:14;;;;;;;22.90;7.65;;;;;;;;;;5049915;28;20150;-79
2022/05/02 05:09:41;;;;;;;15.68;7.40;;;;;;;;;;5051252;28;20079;-80
2022/05/02 05:12:28;;;;;;;16.60;7.97;;;;;;;;;;5032774;28;20509;-81
2022/05/02 05:18:17;;;;;;;18.63;7.60;;;;;;;;;;5038479;28;20124;-79
2022/05/02 05:20:49;;;;;;;17.63;8.43;;;;;;;;;;5050610;28;20084;-80
2022/05/02 05:23:30;;;;;;;13.00;7.90;;;;;;;;;;5031446;28;20053;-81
2022/05/02 05:26:19;;;;;;;19.52;8.00;;;;;;;;;;5024503;28;20579;-82
2022/05/02 05:28:57;;;;;;;16.35;8.43;;;;;;;;;;5027220;28;20652;-84
2022/05/02 05:31:34;;;;;;;12.70;7.22;;;;;;;;;;5050616;28;20482;-82
2022/05/02 05:34:06;;;;;;;17.35;8.13;;;;;;;;;;5048309;28;20438;-83
2022/05/02 05:36:43;;;;;;;17.45;8.80;;;;;;;;;;5013571;28;20096;-83
2022/05/02 05:39:24;;;;;;;17.45;8.48;;;;;;;;;;5047770;28;20686;-83
2022/05/02 05:41:59;;;;;;;16.05;8.70;;;;;;;;;;5051488;28;20515;-84
2022/05/02 05:44:39;;;;;;;15.15;8.10;;;;;;;;;;5050908;28;20056;-82
2022/05/02 05:47:16;;;;;;;14.15;8.25;;;;;;;;;;5051406;28;20144;-84
2022/05/02 05:49:53;;;;;;;13.68;8.07;;;;;;;;;;5049733;28;20715;-84
2022/05/02 05:52:20;;;;;;;20.35;9.80;;;;;;;;;;5050926;28;20128;-83
2022/05/02 05:54:50;;;;;;;14.88;8.38;;;;;;;;;;5051200;28;20387;-83
2022/05/02 05:57:28;;;;;;;15.68;8.32;;;;;;;;;;5033663;28;20092;-83
2022/05/02 06:00:09;;;;;;;13.30;8.10;;;;;;;;;;5033802;28;20099;-83
2022/05/02 06:02:43;;;;;;;18.30;9.35;;;;;;;;;;5050990;28;20059;-83
2022/05/02 06:05:13;;;;;;;16.38;8.70;;;;;;;;;;5033097;28;20078;-84
2022/05/02 06:07:40;;;;;;;22.00;8.98;;;;;;;;;;5033779;28;20088;-82
2022/05/02 06:10:12;;;;;;;15.82;7.78;;;;;;;;;;5051435;28;20044;-82
2022/05/02 06:12:40;;;;;;;19.42;8.80;;;;;;;;;;5046102;28;20073;-83
2022/05/02 06:20:43;;;;;;;18.00;9.07;;;;;;;;;;5051252;28;20072;-83
2022/05/02 06:23:14;;;;;;;20.60;8.35;;;;;;;;;;5051397;28;20532;-83
2022/05/02 06:25:44;;;;;;;18.30;8.02;;;;;;;;;;5050837;28;20091;-83
2022/05/02 06:28:11;;;;;;;17.10;7.90;;;;;;;;;;5031751;28;20119;-83
2022/05/02 06:30:40;;;;;;;21.20;7.63;;;;;;;;;;5049622;28;20049;-84
2022/05/02 06:33:11;;;;;;;16.08;8.05;;;;;;;;;;5051253;28;20088;-83
2022/05/02 06:35:56;;;;;;;17.08;7.32;;;;;;;;;;5050474;28;20486;-83
2022/05/02 06:38:53;;;;;;;24.45;7.50;;;;;;;;;;5050647;28;20141;-83
2022/05/02 06:41:20;;;;;;;20.30;6.78;;;;;;;;;;5034028;28;20045;-83
2022/05/02 06:43:54;;;;;;;17.60;6.93;;;;;;;;;;5050388;28;20099;-83
2022/05/02 06:46:28;;;;;;;15.27;6.15;;;;;;;;;;5050865;28;20667;-83
2022/05/02 06:48:57;;;;;;;14.65;7.07;;;;;;;;;;5050482;28;20060;-84
2022/05/02 06:51:39;;;;;;;11.13;6.80;;;;;;;;;;5051032;28;20460;-83
2022/05/02 06:54:25;;;;;;;15.75;7.57;;;;;;;;;;5034282;28;20049;-83
2022/05/02 06:56:52;;;;;;;;;;;;;;;;;;5014384;28;20084;-83
2022/05/02 06:59:38;;;;;;;9.20;6.15;;;;;;;;;;5048771;28;19921;-83
2022/05/02 07:02:15;;;;;;;27.13;6.32;;;;;;;;;;5036314;28;20049;-83
2022/05/02 07:04:49;;;;;;;8.60;5.40;;;;;;;;;;5013667;28;20611;-83
2022/05/02 07:07:29;;;;;;;12.23;4.78;;;;;;;;;;5046218;28;20134;-83
2022/05/02 07:10:08;;;;;;;6.43;4.30;;;;;;;;;;5050810;28;20049;-82
2022/05/02 07:12:39;;;;;;;5.60;3.72;;;;;;;;;;5051512;28;20103;-83
2022/05/02 07:15:23;;;;;;;7.35;3.70;;;;;;;;;;5037112;28;20478;-83
2022/05/02 07:18:03;;;;;;;12.25;3.92;;;;;;;;;;5036778;28;20540;-82
2022/05/02 07:20:38;;;;;;;6.75;3.65;;;;;;;;;;5036577;28;20544;-82
2022/05/02 07:23:11;;;;;;;7.63;3.08;;;;;;;;;;5054614;28;20103;-83
2022/05/02 07:25:43;;;;;;;2.67;1.75;;;;;;;;;;5054119;28;20672;-83
2022/05/02 07:28:29;;;;;;;6.10;2.40;;;;;;;;;;5035930;28;20045;-82
2022/05/02 07:30:57;;;;;;;4.55;2.60;;;;;;;;;;5040182;28;20073;-83
2022/05/02 07:33:35;;;;;;;22.73;2.80;;;;;;;;;;5036767;28;20136;-83
2022/05/02 07:36:02;;;;;;;4.45;2.00;;;;;;;;;;5054385;28;20075;-83
2022/05/02 07:38:31;;;;;;;13.95;2.88;;;;;;;;;;5050900;28;20049;-83
2022/05/02 07:43:48;;;;;;;6.38;2.90;;;;;;;;;;5034262;28;20129;-83
2022/05/02 07:46:20;;;;;;;12.13;3.80;;;;;;;;;;5040465;28;20422;-83
2022/05/02 07:48:50;;;;;;;28.48;4.22;;;;;;;;;;5045047;28;20083;-83
2022/05/02 07:51:19;;;;;;;17.13;2.65;;;;;;;;;;5060134;22;20406;-73
2022/05/02 07:53:46;;;;;;;7.32;2.38;;;;;;;;;;5029084;28;20081;-73
2022/05/02 07:56:14;;;;;;;5.53;2.60;;;;;;;;;;5010311;28;20132;-73
2022/05/02 07:58:41;;;;;;;11.05;2.88;;;;;;;;;;5027762;28;20478;-72
2022/05/02 08:01:09;;;;;;;14.73;2.67;;;;;;;;;;5032718;28;20136;-72
2022/05/02 08:03:36;;;;;;;13.02;1.77;;;;;;;;;;5031879;28;20108;-72
2022/05/02 08:06:24;;;;;;;15.30;2.13;;;;;;;;;;5014601;28;20413;-73
2022/05/02 08:09:11;;;;;;;2.13;1.58;;;;;;;;;;5007151;28;20076;-73
2022/05/02 08:12:02;;;;;;;3.38;1.20;;;;;;;;;;5028262;28;20590;-73
2022/05/02 08:14:37;;;;;;;5.28;1.05;;;;;;;;;;5016273;28;20045;-73
2022/05/02 08:17:16;;;;;;;2.75;1.23;;;;;;;;;;5017540;28;20149;-73
2022/05/02 08:20:16;;;;;;;8.98;1.52;;;;;;;;;;5046631;28;20106;-73
2022/05/02 08:28:35;;;;;;;3.10;0.85;;;;;;;;;;5046586;28;20131;-73
2022/05/02 08:31:08;;;;;;;1.48;1.00;;;;;;;;;;5038584;28;20044;-73
2022/05/02 08:33:36;;;;;;;4.07;1.10;;;;;;;;;;5015704;28;20130;-83
2022/05/02 08:36:11;;;;;;;3.75;1.10;;;;;;;;;;5038227;28;20069;-84
2022/05/02 08:38:57;;;;;;;1.48;0.98;;;;;;;;;;5052815;28;20072;-84
2022/05/02 08:41:31;;;;;;;31.85;2.10;;;;;;;;;;5053362;28;20041;-83
2022/05/02 08:44:17;;;;;;;8.55;1.35;;;;;;;;;;5053378;28;20049;-83
2022/05/02 08:46:56;;;;;;;2.55;1.23;;;;;;;;;;5053132;28;20092;-83
2022/05/02 08:49:42;;;;;;;4.13;1.45;;;;;;;;;;5052862;28;20088;-83
2022/05/02 08:52:29;;;;;;;5.90;1.80;;;;;;;;;;5046405;28;20076;-83
2022/05/02 08:55:06;;;;;;;9.13;1.42;;;;;;;;;;5041517;22;20757;-83
2022/05/02 08:57:48;;;;;;;2.88;1.27;;;;;;;;;;5030739;28;20080;-83
2022/05/02 09:00:24;;;;;;;8.40;1.60;;;;;;;;;;5031760;28;20073;-83
2022/05/02 09:03:18;;;;;;;2.88;1.58;;;;;;;;;;5018494;28;20060;-84
2022/05/02 09:05:46;;;;;;;2.00;1.30;;;;;;;;;;5011308;28;20065;-84
2022/05/02 09:08:28;;;;;;;3.88;1.45;;;;;;;;;;4995723;28;20534;-84
2022/05/02 09:10:58;;;;;;;4.60;1.60;;;;;;;;;;5018082;28;20045;-83
2022/05/02 09:13:28;;;;;;;12.23;2.22;;;;;;;;;;5014278;28;20823;-83
2022/05/02 09:16:14;;;;;;;4.13;2.15;;;;;;;;;;5027040;28;20128;-83
2022/05/02 09:18:44;;;;;;;15.25;3.15;;;;;;;;;;5012537;28;20049;-84
2022/05/02 09:21:30;;;;;;;17.20;3.97;;;;;;;;;;5012402;28;20074;-84
2022/05/02 09:23:58;;;;;;;7.47;4.47;;;;;;;;;;5012910;28;20084;-84
2022/05/02 09:26:42;;;;;;;16.73;5.00;;;;;;;;;;5021651;28;20084;-84
2022/05/02 09:29:26;;;;;;;323.92;21.52;;;;;;;;;;5032607;28;20534;-84
2022/05/02 09:32:00;;;;;;;8.38;3.72;;;;;;;;;;5031715;28;20103;-84
2022/05/02 09:34:27;;;;;;;;;;;;;;;;;;5032699;28;20053;-84
2022/05/02 09:36:58;;;;;;;13.68;4.05;;;;;;;;;;5007202;28;19925;-84
2022/05/02 09:39:36;;;;;;;5.45;3.42;;;;;;;;;;5032445;28;20550;-84
2022/05/02 09:51:32;;;;;;;5.85;3.97;;;;;;;;;;4989735;28;20128;-83
2022/05/02 09:56:37;;;;;;;9.45;4.35;;;;;;;;;;5000689;28;20074;-83
2022/05/02 09:57:13;;;;;;;8.27;3.85;;;;;;;;;;5027018;28;20073;-83
2022/05/02 09:59:43;;;;;;;7.22;4.00;;;;;;;;;;5032151;28;20449;-83
2022/05/02 10:02:18;;;;;;;7.55;3.58;;;;;;;;;;5045358;28;20720;-83
2022/05/02 10:05:05;;;;;;;18.55;4.80;;;;;;;;;;5035123;28;20061;-83
2022/05/02 10:07:37;;;;;;;7.15;3.75;;;;;;;;;;5031798;28;20410;-84
2022/05/02 10:10:07;;;;;;;9.18;3.75;;;;;;;;;;5032089;28;20107;-84
2022/05/02 10:12:46;;;;;;;6.93;3.63;;;;;;;;;;5031109;28;20049;-84
2022/05/02 10:15:25;;;;;;;6.72;4.20;;;;;;;;;;5015626;28;20060;-83
2022/05/02 10:18:12;;;;;;;6.43;4.05;;;;;;;;;;5051813;28;20053;-83
2022/05/02 10:20:42;;;;;;;10.10;4.45;;;;;;;;;;5032247;28;20540;-83
2022/05/02 10:23:11;;;;;;;9.25;4.38;;;;;;;;;;5031802;28;20049;-83
2022/05/02 10:25:44;;;;;;;6.40;3.65;;;;;;;;;;5013425;28;20407;-83
2022/05/02 10:28:28;;;;;;;9.45;4.50;;;;;;;;;;5031660;28;20074;-83
2022/05/02 10:31:09;;;;;;;7.63;4.25;;;;;;;;;;5017781;28;20076;-83
2022/05/02 10:33:43;;;;;;;25.70;5.75;;;;;;;;;;5028237;28;20076;-83
2022/05/02 10:36:12;;;;;;;14.27;4.65;;;;;;;;;;5031575;28;20490;-83
2022/05/02 10:39:04;;;;;;;8.88;5.07;;;;;;;;;;5013857;28;20049;-84
2022/05/02 10:41:40;;;;;;;7.32;4.35;;;;;;;;;;5039792;28;20045;-84
2022/05/02 10:44:09;;;;;;;7.97;4.20;;;;;;;;;;5042289;28;20053;-82
2022/05/02 10:46:37;;;;;;;12.68;4.57;;;;;;;;;;5040605;28;20243;-83
2022/05/02 10:49:15;;;;;;;8.48;4.13;;;;;;;;;;5052719;28;20052;-82
2022/05/02 10:51:51;;;;;;;9.80;4.18;;;;;;;;;;5017021;28;20061;-84
2022/05/02 10:54:18;;;;;;;9.30;4.35;;;;;;;;;;5027067;28;20510;-83
2022/05/02 10:56:46;;;;;;;31.83;6.28;;;;;;;;;;5037347;28;20075;-84
2022/05/02 10:59:14;;;;;;;8.60;3.70;;;;;;;;;;5054975;28;20132;-82
2022/05/02 11:01:45;;;;;;;12.20;4.97;;;;;;;;;;5044520;28;20192;-83
2022/05/02 11:04:28;;;;;;;11.45;4.20;;;;;;;;;;5043168;28;20092;-83
2022/05/02 11:07:05;;;;;;;7.03;4.07;;;;;;;;;;5037155;28;20140;-84
2022/05/02 11:09:50;;;;;;;23.50;4.80;;;;;;;;;;5054178;28;20071;-84
2022/05/02 11:12:21;;;;;;;6.97;4.30;;;;;;;;;;5039830;28;20054;-84
2022/05/02 11:14:57;;;;;;;6.18;3.63;;;;;;;;;;5040739;28;20077;-84
2022/05/02 11:17:46;;;;;;;7.82;4.05;;;;;;;;;;5050683;28;20087;-84
2022/05/02 11:23:19;;;;;;;6.68;4.25;;;;;;;;;;5054941;28;20120;-84
2022/05/02 11:26:02;;;;;;;5.88;4.22;;;;;;;;;;5037704;28;20684;-84
2022/05/02 11:28:48;;;;;;;13.50;4.13;;;;;;;;;;5054036;28;20107;-84
2022/05/02 11:31:29;;;;;;;9.95;5.82;;;;;;;;;;5048079;28;20509;-83
2022/05/02 11:34:15;;;;;;;6.00;4.68;;;;;;;;;;5039626;28;20049;-82
2022/05/02 11:36:44;;;;;;;7.25;4.35;;;;;;;;;;5044530;28;20050;-83
2022/05/02 11:39:16;;;;;;;9.73;6.15;;;;;;;;;;5016998;28;20123;-84
2022/05/02 11:41:45;;;;;;;9.30;5.65;;;;;;;;;;5044142;28;20048;-85
2022/05/02 11:44:13;;;;;;;12.30;5.00;;;;;;;;;;5028873;28;20084;-84
2022/05/02 11:46:57;;;;;;;19.90;5.40;;;;;;;;;;5026271;28;20497;-84
2022/05/02 11:49:39;;;;;;;18.30;4.25;;;;;;;;;;5053763;28;20103;-84
2022/05/02 11:52:11;;;;;;;7.47;4.20;;;;;;;;;;5061269;22;20055;-74
2022/05/02 11:54:39;;;;;;;11.27;4.07;;;;;;;;;;5011916;28;20507;-74
2022/05/02 11:57:20;;;;;;;7.82;4.32;;;;;;;;;;5027769;28;20058;-74
2022/05/02 12:00:03;;;;;;;8.40;3.88;;;;;;;;;;5031870;28;20136;-74
2022/05/02 12:02:56;;;;;;;5.25;4.03;;;;;;;;;;5045351;28;20056;-74
2022/05/02 12:05:43;;;;;;;10.60;3.60;;;;;;;;;;5039213;28;20053;-74
2022/05/02 12:08:11;;;;;;;7.32;3.50;;;;;;;;;;5042391;28;20061;-74
2022/05/02 12:10:38;;;;;;;10.90;3.75;;;;;;;;;;5028935;28;20049;-74
2022/05/02 12:13:07;;;;;;;5.97;3.75;;;;;;;;;;5045356;28;20050;-74
2022/05/02 12:15:52;;;;;;;5.93;3.80;;;;;;;;;;5027055;28;20115;-75
2022/05/02 12:18:20;;;;;;;8.18;4.95;;;;;;;;;;5046303;28;20064;-74
2022/05/02 12:20:51;;;;;;;7.38;4.72;;;;;;;;;;5044066;28;20542;-74
2022/05/02 12:23:22;;;;;;;6.78;4.20;;;;;;;;;;5042865;28;20136;-74
2022/05/02 12:25:50;;;;;;;5.97;3.40;;;;;;;;;;5037096;28;20041;-74
2022/05/02 12:28:40;;;;;;;11.23;3.92;;;;;;;;;;5026971;28;20128;-74
2022/05/02 12:31:07;;;;;;;18.65;4.68;;;;;;;;;;5024440;28;20099;-74
2022/05/02 12:33:40;;;;;;;8.60;4.15;;;;;;;;;;5027785;28;20099;-74
2022/05/02 12:36:17;;;;;;;8.77;4.05;;;;;;;;;;5028481;28;20114;-74
2022/05/02 12:38:50;;;;;;;5.65;3.78;;;;;;;;;;5028584;28;20143;-74
2022/05/02 12:41:22;;;;;;;8.60;4.32;;;;;;;;;;5039241;28;20073;-73
2022/05/02 12:43:52;;;;;;;10.25;3.88;;;;;;;;;;5034165;28;20084;-73
2022/05/02 12:46:21;;;;;;;11.98;4.45;;;;;;;;;;5046948;28;20045;-73
2022/05/02 12:48:55;;;;;;;6.03;3.40;;;;;;;;;;5046911;28;20053;-73
2022/05/02 12:51:28;;;;;;;8.85;3.92;;;;;;;;;;5039010;28;20106;-74
2022/05/02 12:54:11;;;;;;;8.82;3.40;;;;;;;;;;5035287;28;20103;-73
2022/05/02 13:00:30;;;;;;;7.43;4.18;;;;;;;;;;5041637;28;20062;-73
2022/05/02 13:02:33;;;;;;;6.70;4.40;;;;;;;;;;5046010;28;20148;-73
2022/05/02 13:05:05;;;;;;;72.68;7.30;;;;;;;;;;5029324;28;20705;-73
2022/05/02 13:07:38;;;;;;;5.68;4.00;;;;;;;;;;5013727;28;20049;-74
2022/05/02 13:10:05;;;;;;;7.68;3.47;;;;;;;;;;5045094;28;20156;-74
2022/05/02 13:12:33;;;;;;;12.07;4.03;;;;;;;;;;5045677;28;20049;-74
2022/05/02 13:15:00;;;;;;;18.35;4.82;;;;;;;;;;5036118;28;20205;-74
2022/05/02 13:17:28;;;;;;;15.80;5.75;;;;;;;;;;5045961;28;20519;-74
2022/05/02 13:19:56;;;;;;;15.68;5.60;;;;;;;;;;5045006;28;20140;-73
2022/05/02 13:22:23;;;;;;;8.05;4.45;;;;;;;;;;5045854;28;20151;-73
2022/05/02 13:24:52;;;;;;;9.60;4.18;;;;;;;;;;5036259;28;20094;-73
2022/05/02 13:27:29;;;;;;;12.20;3.78;;;;;;;;;;5045088;28;20079;-73
2022/05/02 13:30:00;;;;;;;27.30;5.10;;;;;;;;;;5025447;28;20116;-73
2022/05/02 13:32:41;;;;;;;10.00;4.80;;;;;;;;;;5045959;28;20048;-81
2022/05/02 13:35:14;;;;;;;11.05;5.15;;;;;;;;;;5048450;28;20052;-80
2022/05/02 13:40:22;;;;;;;6.22;4.53;;;;;;;;;;5047144;28;20734;-84
2022/05/02 13:43:05;;;;;;;5.50;3.72;;;;;;;;;;5042443;28;20557;-83
2022/05/02 13:45:45;;;;;;;7.40;4.28;;;;;;;;;;5048653;28;20131;-84
2022/05/02 13:48:26;;;;;;;9.20;3.67;;;;;;;;;;5049471;28;20064;-84
2022/05/02 13:51:09;;;;;;;6.35;3.45;;;;;;;;;;5047013;28;20056;-84
2022/05/02 13:53:59;;;;;;;15.23;4.05;;;;;;;;;;5044544;28;20125;-83
2022/05/02 13:56:39;;;;;;;6.30;3.92;;;;;;;;;;5049218;28;20477;-84
2022/05/02 13:59:20;;;;;;;7.32;3.42;;;;;;;;;;5053159;28;20079;-84
2022/05/02 14:02:00;;;;;;;12.80;4.43;;;;;;;;;;5047882;28;20041;-85
2022/05/02 14:07:16;;;;;;;8.30;3.85;;;;;;;;;;5039848;28;20776;-84
2022/05/02 14:09:47;;;;;;;12.48;4.50;;;;;;;;;;5049585;28;20045;-83
2022/05/02 14:12:18;;;;;;;5.82;4.15;;;;;;;;;;5049157;28;20040;-83
2022/05/02 14:14:58;;;;;;;9.65;4.10;;;;;;;;;;5047155;28;20185;-82
2022/05/02 14:17:28;;;;;;;5.35;3.70;;;;;;;;;;5042077;28;20092;-83
2022/05/02 14:20:13;;;;;;;14.75;3.72;;;;;;;;;;5046896;28;20053;-83
2022/05/02 14:22:42;;;;;;;6.95;3.90;;;;;;;;;;5043393;28;20048;-82
2022/05/02 14:25:14;;;;;;;6.40;4.25;;;;;;;;;;5049433;28;20068;-83
2022/05/02 14:31:02;;;;;;;17.48;4.93;;;;;;;;;;5013862;28;20050;-74
2022/05/02 14:33:31;;;;;;;7.13;4.15;;;;;;;;;;5010844;28;20753;-74
2022/05/02 14:35:59;;;;;;;4.90;3.55;;;;;;;;;;5014427;28;20148;-74
2022/05/02 14:38:26;;;;;;;9.82;4.43;;;;;;;;;;5015661;28;20131;-74
2022/05/02 14:40:58;;;;;;;8.25;4.00;;;;;;;;;;5014001;28;20058;-74
2022/05/02 14:46:49;;;;;;;14.30;3.35;;;;;;;;;;5043341;23;20084;-74
2022/05/02 14:49:16;;;;;;;6.07;3.70;;;;;;;;;;5048037;23;20560;-83
2022/05/02 14:51:44;;;;;;;8.32;4.28;;;;;;;;;;5063063;28;20489;-84
2022/05/02 14:54:12;;;;;;;6.47;4.10;;;;;;;;;;5063755;28;20091;-84
2022/05/02 14:56:42;;;;;;;7.78;3.72;;;;;;;;;;5064229;28;20135;-83
2022/05/02 15:02:38;;;;;;;8.65;3.97;;;;;;;;;;5036725;22;20168;-85
2022/05/02 15:05:14;;;;;;;8.20;3.70;;;;;;;;;;5010376;28;20046;-85
2022/05/02 15:07:50;;;;;;;6.97;3.10;;;;;;;;;;5026430;28;20117;-84
2022/05/02 15:10:25;;;;;;;7.93;3.70;;;;;;;;;;5022601;28;20527;-83
2022/05/02 15:13:07;;;;;;;12.20;3.73;;;;;;;;;;5026184;28;20112;-83
2022/05/02 15:15:46;;;;;;;6.28;3.83;;;;;;;;;;5004271;28;20299;-82
2022/05/02 15:18:21;;;;;;;11.55;3.15;;;;;;;;;;5026944;28;20056;-82
2022/05/02 15:21:02;;;;;;;9.18;3.50;;;;;;;;;;5023848;28;20099;-82
2022/05/02 15:23:30;;;;;;;13.80;3.03;;;;;;;;;;5017811;28;20549;-82
2022/05/02 15:25:57;;;;;;;5.10;2.95;;;;;;;;;;5011454;28;20072;-82
2022/05/02 15:37:21;;;;;;;30.20;5.00;;;;;;;;;;4990835;28;20664;-80
2022/05/02 15:39:48;;;;;;;7.18;3.10;;;;;;;;;;4988352;28;20082;-82
2022/05/02 15:42:16;;;;;;;11.30;3.25;;;;;;;;;;4987013;28;20046;-84
2022/05/02 15:44:44;;;;;;;6.45;3.08;;;;;;;;;;4988930;28;20082;-83
2022/05/02 15:47:14;;;;;;;6.68;2.80;;;;;;;;;;4992228;28;20053;-82
2022/05/02 15:49:51;;;;;;;10.70;3.42;;;;;;;;;;4993320;28;20097;-82
2022/05/02 15:52:26;;;;;;;4.47;2.65;;;;;;;;;;4993534;28;20082;-83
2022/05/02 15:55:07;;;;;;;4.85;3.00;;;;;;;;;;4994120;28;20058;-82
2022/05/02 15:57:45;;;;;;;4.97;2.85;;;;;;;;;;4994001;28;20056;-83
2022/05/02 16:00:17;;;;;;;4.93;2.80;;;;;;;;;;4994466;28;20054;-82
2022/05/02 16:03:05;;;;;;;6.85;2.58;;;;;;;;;;4992023;28;20088;-81
2022/05/02 16:05:33;;;;;;;7.05;3.30;;;;;;;;;;4992489;28;20222;-82
2022/05/02 16:10:55;;;;;;;8.68;3.20;;;;;;;;;;4993793;28;20116;-81